Time;durP1;ratioP1;P1;durP2;ratioP2;P2;SDS_P1;SDS_P2;PMS_P1;PMS_P2;Temp;Humidity;BMP_temperature;BMP_pressure;BME280_temperature;BME280_humidity;BME280_pressure;Samples;Min_cycle;Max_cycle;Signal;HPM_P1;HPM_P2
2023/09/12 00:01:08;;;;;;;7.65;4.75;;;;;;;26.94;49.91;101032.72;5054011;28;20079;-62
2023/09/12 00:03:34;;;;;;;6.57;4.28;;;;;;;26.92;50.02;101018.38;5055005;28;20106;-62
2023/09/12 00:06:01;;;;;;;16.20;5.03;;;;;;;26.92;50.45;101023.03;5055042;28;20036;-62
2023/09/12 00:08:26;;;;;;;10.40;4.35;;;;;;;26.89;50.58;101010.56;5055076;28;20123;-62
2023/09/12 00:11:18;;;;;;;6.35;3.92;;;;;;;26.91;50.64;101013.94;5053520;28;20119;-63
2023/09/12 00:13:44;;;;;;;5.65;4.00;;;;;;;26.91;50.24;101013.94;5051648;28;20120;-62
2023/09/12 00:16:12;;;;;;;7.38;4.18;;;;;;;26.91;50.30;101022.19;5053415;28;20543;-63
2023/09/12 00:18:38;;;;;;;8.15;4.63;;;;;;;26.90;50.14;101025.16;5053636;28;20412;-63
2023/09/12 00:21:03;;;;;;;9.05;4.82;;;;;;;26.85;50.37;101025.88;5054804;28;20495;-63
2023/09/12 00:23:29;;;;;;;6.68;4.35;;;;;;;26.81;50.49;101021.91;5053092;28;20112;-62
2023/09/12 00:25:54;;;;;;;9.35;4.72;;;;;;;26.82;51.05;101020.84;5054769;28;20033;-63
2023/09/12 00:28:20;;;;;;;8.20;4.65;;;;;;;26.79;50.81;101004.81;5053430;28;20033;-62
2023/09/12 00:30:46;;;;;;;9.48;4.55;;;;;;;26.81;50.96;100999.91;5054633;28;20489;-62
2023/09/12 00:33:11;;;;;;;11.15;4.50;;;;;;;26.81;50.81;101005.41;5054647;28;20036;-62
2023/09/12 00:35:36;;;;;;;6.15;4.53;;;;;;;26.81;51.08;101005.41;5054706;28;20033;-63
2023/09/12 00:38:02;;;;;;;11.00;4.32;;;;;;;26.81;50.98;100999.06;5052934;28;20045;-62
2023/09/12 00:40:28;;;;;;;9.57;4.43;;;;;;;26.81;51.00;100986.16;5054684;28;20036;-62
2023/09/12 00:42:54;;;;;;;5.93;3.67;;;;;;;26.81;50.92;100991.66;5053244;28;20040;-63
2023/09/12 00:45:19;;;;;;;5.97;4.22;;;;;;;26.79;50.46;100996.56;5053088;28;20045;-62
2023/09/12 00:47:44;;;;;;;7.90;4.57;;;;;;;26.79;51.10;100996.56;5054289;28;20037;-63
2023/09/12 00:50:10;;;;;;;9.63;4.75;;;;;;;26.80;50.73;100989.97;5053059;28;20033;-62
2023/09/12 00:52:36;;;;;;;7.22;4.80;;;;;;;26.79;50.71;100985.56;5053640;28;20033;-62
2023/09/12 00:55:02;;;;;;;5.43;3.55;;;;;;;26.83;50.27;100989.50;5054143;28;20603;-63
2023/09/12 00:57:28;;;;;;;13.27;4.38;;;;;;;26.83;50.32;100986.75;5052805;28;20037;-64
2023/09/12 00:59:54;;;;;;;8.65;4.07;;;;;;;26.82;50.58;100985.09;5052547;28;20041;-63
2023/09/12 01:02:19;;;;;;;6.80;4.07;;;;;;;26.86;50.54;100990.94;5035730;28;20075;-63
2023/09/12 01:04:46;;;;;;;9.50;4.72;;;;;;;26.83;50.34;100995.00;5053853;28;20083;-63
2023/09/12 01:07:11;;;;;;;6.55;4.93;;;;;;;26.86;50.32;101000.03;5052586;28;20036;-63
2023/09/12 01:09:36;;;;;;;8.52;4.38;;;;;;;26.86;50.59;101001.94;5052534;28;20033;-64
2023/09/12 01:12:02;;;;;;;5.22;3.97;;;;;;;26.86;51.06;101002.78;5034676;28;20508;-65
2023/09/12 01:14:28;;;;;;;8.82;4.50;;;;;;;26.87;50.63;101001.72;5052598;28;20128;-63
2023/09/12 01:16:54;;;;;;;7.30;5.03;;;;;;;26.87;50.69;101006.38;5053906;28;20049;-63
2023/09/12 01:19:19;;;;;;;6.78;4.40;;;;;;;26.88;50.21;101003.41;5052235;28;20452;-63
2023/09/12 01:21:57;;;;;;;8.02;4.20;;;;;;;26.92;50.47;100995.53;5053669;28;20033;-63
2023/09/12 01:25:04;;;;;;;9.48;4.80;;;;;;;26.92;50.41;100985.38;5053416;28;20045;-64
2023/09/12 01:27:37;;;;;;;8.80;4.78;;;;;;;26.92;50.67;100977.13;5053288;28;20167;-64
2023/09/12 01:30:06;;;;;;;8.43;5.15;;;;;;;26.91;50.77;100977.38;5052178;28;20036;-64
2023/09/12 01:32:32;;;;;;;11.73;4.93;;;;;;;26.93;51.06;100970.56;5053405;28;20033;-64
2023/09/12 01:34:57;;;;;;;7.75;5.25;;;;;;;26.95;50.73;100962.91;5053294;28;20396;-63
2023/09/12 01:37:23;;;;;;;10.65;4.82;;;;;;;26.98;51.03;100958.84;5053227;28;20026;-63
2023/09/12 01:39:48;;;;;;;10.27;4.28;;;;;;;27.00;50.42;100965.78;5053324;28;20052;-63
2023/09/12 01:42:16;;;;;;;8.30;5.07;;;;;;;27.02;50.80;100966.41;5051881;28;20037;-63
2023/09/12 01:44:45;;;;;;;7.78;5.07;;;;;;;27.02;50.39;100963.66;5052130;28;20033;-64
2023/09/12 01:47:11;;;;;;;7.43;4.68;;;;;;;27.03;50.80;100979.06;5051815;28;20037;-64
2023/09/12 01:49:39;;;;;;;10.80;5.43;;;;;;;27.03;50.52;100973.56;5051941;28;20531;-64
2023/09/12 01:52:05;;;;;;;9.02;5.10;;;;;;;27.04;50.18;100967.00;5051598;28;20112;-64
2023/09/12 01:54:32;;;;;;;10.98;5.03;;;;;;;27.05;50.42;100968.66;5051797;28;20123;-63
2023/09/12 01:56:58;;;;;;;9.18;5.00;;;;;;;27.07;50.38;100980.31;5051700;28;20048;-63
2023/09/12 01:59:24;;;;;;;7.90;4.45;;;;;;;27.11;50.50;100972.41;5051688;28;20499;-63
2023/09/12 02:01:50;;;;;;;10.48;4.95;;;;;;;27.12;50.74;100969.44;5051515;28;20060;-63
2023/09/12 02:04:16;;;;;;;9.32;4.63;;;;;;;27.16;50.67;100970.63;5052889;28;20025;-62
2023/09/12 02:06:41;;;;;;;9.73;5.25;;;;;;;27.15;50.92;100968.97;5051355;28;20510;-63
2023/09/12 02:09:06;;;;;;;9.30;5.90;;;;;;;27.22;50.77;100979.84;5051362;28;20025;-63
2023/09/12 02:11:32;;;;;;;9.32;4.68;;;;;;;27.19;51.16;100986.66;5051436;28;20033;-63
2023/09/12 02:13:57;;;;;;;8.55;4.72;;;;;;;27.22;51.10;100988.09;5052422;28;20033;-63
2023/09/12 02:16:22;;;;;;;8.10;5.40;;;;;;;27.22;50.68;100987.28;5050901;28;20508;-62
2023/09/12 02:18:48;;;;;;;12.35;4.68;;;;;;;27.24;50.97;100988.72;5050948;28;20041;-62
2023/09/12 02:21:13;;;;;;;10.88;5.47;;;;;;;27.28;51.28;100986.31;5051454;28;20048;-62
2023/09/12 02:23:38;;;;;;;8.25;4.15;;;;;;;27.31;51.42;100988.59;5052236;28;20516;-63
2023/09/12 02:26:04;;;;;;;10.25;5.22;;;;;;;27.32;51.02;100984.78;5052668;28;20044;-63
2023/09/12 02:28:29;;;;;;;13.10;4.97;;;;;;;27.32;51.16;100982.03;5051442;28;20480;-63
2023/09/12 02:30:54;;;;;;;7.68;5.03;;;;;;;27.32;51.13;100990.31;5052626;28;20029;-62
2023/09/12 02:33:20;;;;;;;8.45;5.53;;;;;;;27.32;50.40;101001.31;5052541;28;20033;-63
2023/09/12 02:35:45;;;;;;;8.55;4.72;;;;;;;27.32;50.70;101012.31;5034590;28;20057;-62
2023/09/12 02:38:11;;;;;;;9.18;5.72;;;;;;;27.32;50.40;101012.31;5051094;28;20029;-64
2023/09/12 02:40:36;;;;;;;10.57;4.00;;;;;;;27.29;50.92;100974.25;5052598;28;20108;-62
2023/09/12 02:43:02;;;;;;;11.18;5.90;;;;;;;27.31;50.64;100939.09;5066198;28;20036;-62
2023/09/12 02:45:27;;;;;;;13.75;5.05;;;;;;;27.30;51.49;100920.91;5072384;28;20401;-62
2023/09/12 02:47:52;;;;;;;9.70;5.70;;;;;;;27.29;51.01;100932.97;5071060;28;20504;-62
2023/09/12 02:50:18;;;;;;;8.38;4.97;;;;;;;27.26;51.70;100959.06;5071098;28;20484;-63
2023/09/12 02:52:44;;;;;;;10.73;4.95;;;;;;;27.24;50.96;100972.22;5072315;28;20464;-62
2023/09/12 02:55:10;;;;;;;8.50;5.05;;;;;;;27.19;51.13;100972.91;5071110;28;20044;-62
2023/09/12 02:57:35;;;;;;;14.38;5.35;;;;;;;27.21;51.17;100977.34;5072307;28;20111;-62
2023/09/12 03:00:01;;;;;;;10.93;6.30;;;;;;;27.18;51.68;100968.50;5070959;28;20111;-62
2023/09/12 03:02:29;;;;;;;12.95;5.82;;;;;;;27.17;50.85;100965.97;5072314;28;20032;-62
2023/09/12 03:04:54;;;;;;;9.52;4.95;;;;;;;27.16;50.74;100958.81;5072364;28;20033;-63
2023/09/12 03:07:20;;;;;;;7.45;5.43;;;;;;;27.14;51.59;100955.44;5070983;28;20021;-63
2023/09/12 03:09:48;;;;;;;7.25;4.95;;;;;;;27.09;51.20;100953.41;5072092;28;20094;-63
2023/09/12 03:12:13;;;;;;;8.98;5.00;;;;;;;27.02;51.20;100947.16;5072129;28;20051;-62
2023/09/12 03:14:39;;;;;;;10.23;5.63;;;;;;;27.06;51.06;100951.09;5072388;28;20149;-64
2023/09/12 03:17:05;;;;;;;8.02;4.80;;;;;;;27.04;50.93;100953.25;5072025;28;20060;-64
2023/09/12 03:19:30;;;;;;;7.97;4.68;;;;;;;27.02;51.23;100946.31;5071991;28;20033;-64
2023/09/12 03:21:55;;;;;;;11.35;5.53;;;;;;;27.00;50.83;100957.53;5072226;28;20495;-64
2023/09/12 03:24:24;;;;;;;9.10;5.28;;;;;;;26.99;51.18;100955.88;5071778;28;20045;-63
2023/09/12 03:26:49;;;;;;;8.88;6.00;;;;;;;27.01;51.39;100967.47;5070741;28;20047;-64
2023/09/12 03:29:15;;;;;;;14.32;5.78;;;;;;;26.99;51.15;100958.63;5075239;28;20029;-64
2023/09/12 03:31:41;;;;;;;9.35;5.18;;;;;;;26.99;51.34;100953.13;5074501;28;20454;-63
2023/09/12 03:34:07;;;;;;;10.07;5.55;;;;;;;27.01;50.85;100950.97;5075540;28;20024;-63
2023/09/12 03:36:32;;;;;;;9.52;5.20;;;;;;;27.01;50.71;100936.38;5075776;28;20129;-65
2023/09/12 03:38:57;;;;;;;12.55;5.75;;;;;;;27.01;50.99;100947.38;5057595;28;20039;-63
2023/09/12 03:41:25;;;;;;;10.68;6.30;;;;;;;26.95;51.08;100946.41;5074229;28;20400;-63
2023/09/12 03:43:54;;;;;;;9.60;5.68;;;;;;;26.89;51.58;100947.34;5075504;28;20033;-63
2023/09/12 03:46:20;;;;;;;8.68;5.13;;;;;;;26.90;51.77;100951.78;5074194;28;20037;-63
2023/09/12 03:48:45;;;;;;;12.80;7.22;;;;;;;26.91;51.53;100955.38;5074100;28;20043;-62
2023/09/12 03:51:11;;;;;;;15.73;6.07;;;;;;;26.95;52.00;100956.56;5074126;28;20407;-63
2023/09/12 03:53:36;;;;;;;12.05;5.68;;;;;;;26.94;51.88;100950.22;5075017;28;20020;-63
2023/09/12 03:56:02;;;;;;;8.52;5.68;;;;;;;26.94;52.21;100950.22;5075290;28;20056;-63
2023/09/12 03:58:27;;;;;;;8.30;5.18;;;;;;;26.96;52.15;100961.00;5075156;28;20040;-63
2023/09/12 04:00:53;;;;;;;12.50;5.15;;;;;;;26.94;51.93;100966.72;5075127;28;20074;-62
2023/09/12 04:03:20;;;;;;;12.25;5.45;;;;;;;26.94;51.44;100976.91;5073961;28;20060;-63
2023/09/12 04:05:47;;;;;;;11.35;6.97;;;;;;;26.92;51.19;100976.28;5075251;28;20496;-63
2023/09/12 04:08:12;;;;;;;12.93;6.35;;;;;;;26.92;52.21;100977.13;5075065;28;20033;-63
2023/09/12 04:10:37;;;;;;;12.07;6.25;;;;;;;26.92;51.92;100990.88;5073647;28;20081;-63
2023/09/12 04:13:03;;;;;;;10.82;6.40;;;;;;;26.91;51.97;100993.88;5073550;28;20150;-63
2023/09/12 04:15:29;;;;;;;12.95;6.28;;;;;;;26.91;51.76;100997.44;5073630;28;20041;-62
2023/09/12 04:17:54;;;;;;;11.07;6.28;;;;;;;26.92;51.76;100990.03;5074823;28;20039;-63
2023/09/12 04:20:19;;;;;;;13.85;6.53;;;;;;;26.91;51.65;100969.94;5073457;28;20497;-63
2023/09/12 04:22:45;;;;;;;15.80;6.43;;;;;;;26.92;51.96;100968.88;5073459;28;20441;-63
2023/09/12 04:25:10;;;;;;;15.07;6.88;;;;;;;26.88;52.38;100964.94;5073500;28;20576;-62
2023/09/12 04:27:36;;;;;;;9.85;6.25;;;;;;;26.77;51.80;100965.69;5056742;28;20039;-65
2023/09/12 04:30:01;;;;;;;11.32;6.00;;;;;;;26.62;52.40;100948.75;5073429;28;20032;-66
2023/09/12 04:32:27;;;;;;;10.63;6.20;;;;;;;26.47;52.51;100975.75;5073217;28;20033;-64
2023/09/12 04:34:52;;;;;;;14.13;7.20;;;;;;;26.32;53.26;101005.53;5073400;28;20442;-66
2023/09/12 04:37:18;;;;;;;15.40;6.57;;;;;;;26.20;53.54;101007.34;5074507;28;20090;-65
2023/09/12 04:39:45;;;;;;;13.35;7.63;;;;;;;26.13;53.27;101012.06;5074052;28;20041;-65
2023/09/12 04:42:10;;;;;;;12.90;6.20;;;;;;;26.00;54.08;100997.38;5073140;28;20119;-64
2023/09/12 04:44:40;;;;;;;14.77;6.38;;;;;;;25.95;54.26;100996.38;5072994;28;20067;-65
2023/09/12 04:47:05;;;;;;;12.65;6.78;;;;;;;25.90;54.59;100980.59;5056333;28;20033;-65
2023/09/12 04:49:30;;;;;;;10.55;6.55;;;;;;;25.85;54.08;100983.13;5055244;28;20120;-64
2023/09/12 04:51:56;;;;;;;10.93;6.53;;;;;;;25.82;54.33;101005.59;5056232;28;20119;-65
2023/09/12 04:54:21;;;;;;;13.30;7.10;;;;;;;25.80;54.71;101007.69;5074130;28;20101;-65
2023/09/12 04:56:47;;;;;;;15.00;7.28;;;;;;;25.78;54.50;101012.56;5074344;28;20037;-65
2023/09/12 04:59:12;;;;;;;14.40;7.47;;;;;;;25.74;54.48;101010.50;5072695;28;20058;-65
2023/09/12 05:01:37;;;;;;;12.80;5.72;;;;;;;25.72;54.89;101005.22;5073906;28;20029;-64
2023/09/12 05:04:03;;;;;;;12.25;6.80;;;;;;;25.73;54.57;101009.66;5073884;28;20211;-64
2023/09/12 05:06:28;;;;;;;11.82;7.00;;;;;;;25.73;54.72;101006.91;5074057;28;20028;-64
2023/09/12 05:08:54;;;;;;;13.38;8.35;;;;;;;25.72;54.54;101016.22;5072535;28;20135;-63
2023/09/12 05:11:19;;;;;;;15.13;8.13;;;;;;;25.69;54.56;101013.06;5072499;28;20033;-63
2023/09/12 05:13:45;;;;;;;12.55;7.55;;;;;;;25.73;54.74;101014.31;5073685;28;20028;-64
2023/09/12 05:16:10;;;;;;;12.57;7.40;;;;;;;25.75;54.91;101017.66;5074175;28;20561;-64
2023/09/12 05:18:36;;;;;;;13.32;7.35;;;;;;;25.75;54.56;100996.53;5073361;28;20040;-63
2023/09/12 05:21:01;;;;;;;15.45;7.30;;;;;;;25.72;55.06;100980.53;5071805;28;20071;-63
2023/09/12 05:23:26;;;;;;;13.35;8.00;;;;;;;25.68;54.79;100960.09;5072240;28;20029;-62
2023/09/12 05:25:52;;;;;;;11.70;6.55;;;;;;;25.68;55.05;100960.09;5071754;28;20097;-62
2023/09/12 05:28:18;;;;;;;14.23;7.47;;;;;;;25.69;54.93;100960.91;5071744;28;20058;-63
2023/09/12 05:30:43;;;;;;;14.00;6.65;;;;;;;25.71;55.20;100945.91;5072042;28;20199;-62
2023/09/12 05:33:09;;;;;;;14.30;8.00;;;;;;;25.73;54.89;100938.31;5073314;28;20561;-62
2023/09/12 05:35:34;;;;;;;11.77;6.88;;;;;;;25.74;54.68;100931.72;5071598;28;20054;-62
2023/09/12 05:37:59;;;;;;;13.50;7.28;;;;;;;25.78;54.73;100943.94;5073218;28;20059;-62
2023/09/12 05:40:25;;;;;;;12.77;7.30;;;;;;;25.79;54.88;100953.88;5071639;28;20036;-62
2023/09/12 05:42:50;;;;;;;14.27;7.30;;;;;;;25.82;55.18;100956.16;5072074;28;20504;-64
2023/09/12 05:45:15;;;;;;;11.95;7.32;;;;;;;25.83;55.27;100954.25;5072866;28;20523;-63
2023/09/12 05:47:41;;;;;;;11.13;7.20;;;;;;;25.86;55.15;100968.38;5071829;28;20028;-63
2023/09/12 05:50:06;;;;;;;13.82;7.05;;;;;;;25.89;55.31;100973.41;5070845;28;20028;-64
2023/09/12 05:52:33;;;;;;;11.45;7.40;;;;;;;25.89;54.85;100973.41;5072479;28;20515;-63
2023/09/12 05:54:58;;;;;;;13.98;7.10;;;;;;;25.90;55.14;100966.84;5071704;28;20033;-62
2023/09/12 05:57:23;;;;;;;16.40;8.05;;;;;;;25.89;55.22;100956.09;5072991;28;20384;-63
2023/09/12 05:59:49;;;;;;;18.77;8.05;;;;;;;25.88;54.88;100955.25;5071716;28;20111;-63
2023/09/12 06:02:14;;;;;;;14.60;7.70;;;;;;;25.88;55.10;100938.78;5071608;28;20102;-63
2023/09/12 06:04:40;;;;;;;12.77;7.10;;;;;;;25.87;55.15;100953.59;5071401;28;20040;-63
2023/09/12 06:07:05;;;;;;;12.68;6.97;;;;;;;25.90;54.92;100957.78;5071448;28;20041;-64
2023/09/12 06:09:30;;;;;;;11.35;7.05;;;;;;;25.92;54.75;100967.47;5071582;28;20472;-63
2023/09/12 06:11:56;;;;;;;15.93;7.28;;;;;;;25.95;55.09;100966.16;5073010;28;20086;-64
2023/09/12 06:14:22;;;;;;;14.30;7.30;;;;;;;25.99;55.30;100956.44;5071438;28;20467;-63
2023/09/12 06:16:47;;;;;;;11.50;7.07;;;;;;;26.02;54.99;100944.97;5071559;28;20028;-63
2023/09/12 06:19:14;;;;;;;15.90;7.38;;;;;;;26.04;55.03;100929.97;5072470;28;20569;-64
2023/09/12 06:21:40;;;;;;;12.60;8.00;;;;;;;26.08;54.97;100934.97;5072710;28;20048;-63
2023/09/12 06:24:17;;;;;;;14.05;7.45;;;;;;;26.12;54.97;100933.47;5072601;28;20548;-63
2023/09/12 06:26:43;;;;;;;13.85;7.28;;;;;;;26.16;55.14;100953.97;5054013;28;20052;-64
2023/09/12 06:29:09;;;;;;;17.98;7.22;;;;;;;26.15;55.28;100957.75;5071607;28;20476;-64
2023/09/12 06:31:35;;;;;;;13.88;8.02;;;;;;;26.17;55.29;100970.19;5071246;28;20027;-63
2023/09/12 06:34:00;;;;;;;17.52;7.72;;;;;;;26.23;54.98;100968.44;5071439;28;20082;-62
2023/09/12 06:36:27;;;;;;;14.90;7.72;;;;;;;26.26;54.74;100973.47;5072402;28;20426;-62
2023/09/12 06:38:52;;;;;;;15.70;8.20;;;;;;;26.33;55.07;100982.47;5071235;28;20051;-63
2023/09/12 06:41:20;;;;;;;14.48;7.20;;;;;;;26.37;54.97;100983.72;5054418;28;20056;-62
2023/09/12 06:43:46;;;;;;;14.80;7.53;;;;;;;26.44;54.64;100981.72;5071220;28;20552;-63
2023/09/12 06:46:11;;;;;;;17.40;8.20;;;;;;;26.50;54.67;100989.88;5072256;28;20016;-62
2023/09/12 06:48:36;;;;;;;13.38;7.78;;;;;;;26.59;54.81;100990.41;5072138;28;20383;-62
2023/09/12 06:51:06;;;;;;;15.82;9.00;;;;;;;26.66;54.79;100982.94;5070545;28;20044;-64
2023/09/12 06:53:31;;;;;;;21.73;9.70;;;;;;;26.78;54.04;100992.13;5072024;28;20047;-62
2023/09/12 06:55:58;;;;;;;16.20;8.40;;;;;;;26.84;54.23;100988.44;5071785;28;20392;-62
2023/09/12 06:58:24;;;;;;;21.00;9.18;;;;;;;26.95;54.22;100979.41;5070947;28;20020;-62
2023/09/12 07:00:49;;;;;;;14.68;7.40;;;;;;;27.04;53.65;100983.50;5070489;28;20031;-62
2023/09/12 07:03:15;;;;;;;28.58;9.90;;;;;;;27.16;53.73;100989.88;5075699;28;20037;-63
2023/09/12 07:05:41;;;;;;;13.27;7.75;;;;;;;27.43;53.73;100993.13;5075658;28;20500;-63
2023/09/12 07:08:07;;;;;;;13.45;7.85;;;;;;;27.74;53.62;101000.25;5071699;28;20553;-62
2023/09/12 07:10:32;;;;;;;15.32;8.65;;;;;;;27.79;53.60;101003.13;5074391;28;20128;-62
2023/09/12 07:12:58;;;;;;;17.50;7.93;;;;;;;27.84;53.07;100996.88;5073647;28;20480;-62
2023/09/12 07:15:23;;;;;;;13.02;7.65;;;;;;;27.90;53.56;100988.50;5075651;28;20045;-63
2023/09/12 07:17:48;;;;;;;15.93;7.25;;;;;;;27.96;53.59;100982.06;5057384;28;20032;-63
2023/09/12 07:20:15;;;;;;;13.50;7.53;;;;;;;28.05;52.69;100985.31;5074101;28;20073;-62
2023/09/12 07:22:41;;;;;;;15.45;7.65;;;;;;;28.12;53.30;100984.09;5074128;28;20047;-62
2023/09/12 07:25:07;;;;;;;17.55;7.90;;;;;;;28.50;52.18;100991.03;5073727;28;20024;-63
2023/09/12 07:27:32;;;;;;;14.57;8.07;;;;;;;28.91;51.40;100990.81;5075169;28;20043;-62
2023/09/12 07:29:58;;;;;;;13.38;8.07;;;;;;;29.35;50.98;100987.28;5073760;28;20032;-62
2023/09/12 07:32:24;;;;;;;15.95;8.80;;;;;;;29.74;51.24;100984.59;5073612;28;20032;-62
2023/09/12 07:34:49;;;;;;;15.75;7.68;;;;;;;30.09;50.67;100976.94;5073886;28;20033;-65
2023/09/12 07:37:15;;;;;;;17.05;7.15;;;;;;;30.54;50.52;100991.41;5057092;28;20438;-64
2023/09/12 07:39:40;;;;;;;13.95;7.13;;;;;;;30.95;50.06;101005.78;5074917;28;20039;-63
2023/09/12 07:42:06;;;;;;;9.85;6.70;;;;;;;31.27;49.58;101006.69;5073846;28;20111;-65
2023/09/12 07:44:31;;;;;;;13.30;7.18;;;;;;;31.62;49.15;101009.84;5075227;28;20037;-64
2023/09/12 07:46:56;;;;;;;11.38;6.93;;;;;;;31.93;48.23;101022.00;5056992;28;20504;-64
2023/09/12 07:49:23;;;;;;;9.82;6.30;;;;;;;32.20;47.52;101020.00;5072549;28;20587;-66
2023/09/12 07:51:49;;;;;;;13.45;7.20;;;;;;;32.49;47.64;101025.19;5076175;28;20419;-64
2023/09/12 07:54:14;;;;;;;12.80;6.78;;;;;;;32.80;47.58;101027.03;5075188;28;20563;-64
2023/09/12 07:56:40;;;;;;;11.82;6.63;;;;;;;33.04;46.53;101027.38;5074960;28;20040;-65
2023/09/12 07:59:05;;;;;;;10.45;5.60;;;;;;;33.20;46.85;101020.78;5073327;28;20040;-65
2023/09/12 08:01:30;;;;;;;9.00;5.25;;;;;;;33.42;46.61;101024.19;5074614;28;20039;-65
2023/09/12 08:03:56;;;;;;;7.60;5.68;;;;;;;33.63;45.98;101019.53;5073303;28;20028;-65
2023/09/12 08:06:24;;;;;;;12.10;6.03;;;;;;;33.87;46.05;101026.19;5072982;28;20029;-65
2023/09/12 08:08:49;;;;;;;8.90;5.22;;;;;;;34.10;45.54;101024.81;5074804;28;20024;-64
2023/09/12 08:11:14;;;;;;;8.77;5.30;;;;;;;34.31;44.56;101032.03;5073042;28;20037;-65
2023/09/12 08:13:40;;;;;;;13.02;5.75;;;;;;;34.46;43.93;101040.31;5073878;28;20081;-65
2023/09/12 08:16:05;;;;;;;6.75;4.32;;;;;;;34.41;44.21;101038.41;5056914;28;20056;-65
2023/09/12 08:18:31;;;;;;;6.88;3.58;;;;;;;34.63;43.62;101040.88;5073553;28;20090;-66
2023/09/12 08:20:56;;;;;;;12.55;4.85;;;;;;;34.77;43.33;101047.50;5073551;28;20028;-66
2023/09/12 08:23:22;;;;;;;6.43;4.05;;;;;;;34.90;42.32;101034.91;5073757;28;20036;-66
2023/09/12 08:25:48;;;;;;;8.20;4.07;;;;;;;35.02;42.01;101033.47;5075258;28;20500;-66
2023/09/12 08:28:13;;;;;;;7.68;3.70;;;;;;;35.18;41.80;101025.06;5074904;28;20052;-66
2023/09/12 08:30:39;;;;;;;5.97;3.75;;;;;;;35.32;42.23;101020.50;5074803;28;20499;-66
2023/09/12 08:33:06;;;;;;;8.80;4.00;;;;;;;35.51;41.87;101044.59;5073015;28;20048;-66
2023/09/12 08:35:32;;;;;;;9.30;4.65;;;;;;;35.72;41.60;101047.28;5074728;28;20119;-66
2023/09/12 08:37:58;;;;;;;7.57;5.00;;;;;;;35.81;40.87;101040.81;5073175;28;20432;-66
2023/09/12 08:40:23;;;;;;;6.15;4.18;;;;;;;35.90;40.84;101058.59;5073095;28;20041;-66
2023/09/12 08:42:51;;;;;;;8.50;5.07;;;;;;;36.06;40.37;101060.16;5074450;28;20488;-66
2023/09/12 08:45:19;;;;;;;10.50;4.60;;;;;;;36.16;40.30;101054.47;5056205;28;20024;-66
2023/09/12 08:47:45;;;;;;;7.60;5.15;;;;;;;36.35;39.92;101042.56;5056612;28;20028;-65
2023/09/12 08:50:13;;;;;;;10.93;5.75;;;;;;;36.48;39.90;101044.66;5073258;28;20060;-66
2023/09/12 08:52:39;;;;;;;6.97;5.40;;;;;;;36.57;39.63;101054.09;5072845;28;20036;-66
2023/09/12 08:55:05;;;;;;;12.13;5.78;;;;;;;36.61;39.62;101055.13;5073115;28;20028;-66
2023/09/12 08:57:33;;;;;;;6.85;4.28;;;;;;;36.68;39.32;101055.63;5073910;28;20557;-65
2023/09/12 09:00:05;;;;;;;7.28;4.93;;;;;;;36.69;38.93;101054.47;5055833;28;20036;-66
2023/09/12 09:02:32;;;;;;;6.82;4.18;;;;;;;36.78;39.09;101055.50;5072794;28;20537;-66
2023/09/12 09:04:58;;;;;;;9.32;3.95;;;;;;;36.86;39.13;101052.03;5056242;28;20090;-66
2023/09/12 09:07:24;;;;;;;5.50;3.83;;;;;;;36.96;38.95;101054.75;5073578;28;20120;-66
2023/09/12 09:09:51;;;;;;;10.63;3.33;;;;;;;37.07;38.41;101047.06;5072513;28;20044;-65
2023/09/12 09:12:17;;;;;;;4.80;3.80;;;;;;;37.14;38.13;101037.16;5072396;28;20120;-66
2023/09/12 09:14:42;;;;;;;4.95;3.78;;;;;;;37.27;37.47;101030.00;5073719;28;20123;-65
2023/09/12 09:17:10;;;;;;;7.38;4.10;;;;;;;37.32;37.92;101033.56;5072374;28;20059;-67
2023/09/12 09:19:43;;;;;;;9.30;4.97;;;;;;;37.39;38.16;101035.97;5056133;28;20515;-66
2023/09/12 09:22:09;;;;;;;7.93;4.75;;;;;;;37.52;37.52;101040.84;5072588;28;20033;-66
2023/09/12 09:24:34;;;;;;;7.68;4.35;;;;;;;37.67;37.15;101034.16;5071771;28;20028;-65
2023/09/12 09:27:00;;;;;;;8.85;5.07;;;;;;;37.80;37.67;101025.00;5071745;28;20048;-66
2023/09/12 09:29:31;;;;;;;5.75;4.18;;;;;;;37.75;37.19;101031.50;5072378;28;20036;-66
2023/09/12 09:31:57;;;;;;;11.50;4.72;;;;;;;37.86;36.36;101024.59;5073388;28;20450;-65
2023/09/12 09:34:24;;;;;;;6.80;4.10;;;;;;;38.09;36.26;101027.59;5072358;28;20052;-66
2023/09/12 09:36:53;;;;;;;10.18;4.43;;;;;;;38.42;36.25;101034.84;5039398;28;20131;-66
2023/09/12 09:39:20;;;;;;;6.47;4.63;;;;;;;38.84;35.62;101034.56;5055773;28;20035;-67
2023/09/12 09:41:50;;;;;;;7.03;4.00;;;;;;;39.78;34.34;101023.47;5072908;28;20116;-66
2023/09/12 09:44:16;;;;;;;5.78;4.85;;;;;;;41.25;32.56;101031.41;5055951;28;20096;-68
2023/09/12 09:46:45;;;;;;;9.05;4.40;;;;;;;41.00;32.53;101035.00;5072482;28;20040;-66
2023/09/12 09:49:11;;;;;;;5.93;4.30;;;;;;;40.73;32.88;101033.25;5073689;28;20456;-67
2023/09/12 09:51:43;;;;;;;8.43;5.38;;;;;;;40.50;33.00;101024.09;5072040;28;20527;-67
2023/09/12 09:54:10;;;;;;;7.88;4.82;;;;;;;40.34;32.97;101031.25;5072307;28;20043;-68
2023/09/12 09:56:50;;;;;;;11.50;4.95;;;;;;;40.34;32.76;101024.81;5073991;28;20500;-67
2023/09/12 09:59:19;;;;;;;9.13;6.45;;;;;;;40.41;33.60;101026.00;5072440;28;20064;-67
2023/09/12 10:01:45;;;;;;;11.70;6.30;;;;;;;40.48;33.16;101026.34;5055519;28;20158;-66
2023/09/12 10:04:11;;;;;;;143.98;34.22;;;;;;;40.60;32.58;101020.97;5074001;28;20075;-67
2023/09/12 10:06:37;;;;;;;10.20;6.53;;;;;;;40.96;32.61;101028.41;5078865;28;20016;-68
2023/09/12 10:09:06;;;;;;;9.23;6.43;;;;;;;41.27;32.20;101017.81;5077140;28;20021;-67
2023/09/12 10:11:34;;;;;;;14.18;7.82;;;;;;;40.92;32.42;101018.94;5078242;28;20024;-67
2023/09/12 10:14:03;;;;;;;11.18;6.03;;;;;;;40.53;32.74;101017.81;5074652;28;20031;-67
2023/09/12 10:16:48;;;;;;;8.88;6.15;;;;;;;40.50;32.47;101021.28;5056665;28;20542;-67
2023/09/12 10:19:23;;;;;;;8.32;6.63;;;;;;;40.87;32.15;101027.50;5072846;28;20036;-65
2023/09/12 10:22:20;;;;;;;9.18;6.45;;;;;;;41.32;31.76;101017.72;5055751;28;20078;-63
2023/09/12 10:24:45;;;;;;;13.68;7.30;;;;;;;41.68;31.53;101015.34;5072678;28;20062;-67
2023/09/12 10:27:12;;;;;;;9.70;6.43;;;;;;;41.99;31.02;101014.38;5072055;28;20039;-65
2023/09/12 10:29:38;;;;;;;10.52;7.20;;;;;;;42.20;30.85;101004.06;5058085;28;20046;-64
2023/09/12 10:32:03;;;;;;;9.10;7.22;;;;;;;42.40;30.87;101008.94;5077597;28;20123;-67
2023/09/12 10:34:30;;;;;;;11.52;7.78;;;;;;;42.57;30.34;101003.28;5074032;28;20566;-65
2023/09/12 10:36:59;;;;;;;11.00;7.22;;;;;;;42.70;30.16;100993.72;5054280;28;20028;-65
2023/09/12 10:39:27;;;;;;;9.38;7.60;;;;;;;42.28;30.38;100994.72;5071538;28;20078;-66
2023/09/12 10:41:53;;;;;;;10.38;7.55;;;;;;;42.47;30.08;100995.13;5071367;28;20043;-66
2023/09/12 10:44:19;;;;;;;11.25;7.57;;;;;;;42.64;29.96;100992.28;5071587;28;20039;-65
2023/09/12 10:46:46;;;;;;;8.60;6.30;;;;;;;42.75;30.50;100993.53;5054633;28;20036;-65
2023/09/12 10:49:12;;;;;;;11.93;7.03;;;;;;;42.94;29.73;100995.91;5071459;28;20029;-66
2023/09/12 10:51:45;;;;;;;11.10;7.47;;;;;;;43.09;29.39;100992.50;5071188;28;20056;-66
2023/09/12 10:54:16;;;;;;;10.63;6.45;;;;;;;43.18;29.35;100984.81;5071807;28;20037;-66
2023/09/12 10:56:41;;;;;;;9.05;6.40;;;;;;;43.27;29.68;100987.56;5071529;28;20028;-66
2023/09/12 10:59:07;;;;;;;13.02;7.38;;;;;;;43.16;29.32;100986.31;5069868;28;20054;-66
2023/09/12 11:01:37;;;;;;;12.02;7.25;;;;;;;43.09;29.54;100991.66;5072500;28;20175;-65
2023/09/12 11:04:28;;;;;;;13.40;7.13;;;;;;;43.06;29.41;100998.00;5071219;28;20033;-65
2023/09/12 11:06:54;;;;;;;13.13;7.82;;;;;;;43.30;29.26;101003.81;5065398;28;20040;-67
2023/09/12 11:09:26;;;;;;;11.73;8.10;;;;;;;43.40;28.69;100997.75;5072750;28;20041;-66
2023/09/12 11:12:08;;;;;;;10.50;7.43;;;;;;;42.96;29.12;101001.22;5070610;28;20123;-66
2023/09/12 11:14:33;;;;;;;11.00;7.28;;;;;;;42.20;29.93;101004.06;5072425;28;20036;-65
2023/09/12 11:17:07;;;;;;;11.70;7.30;;;;;;;42.53;29.47;101001.41;5070927;28;20361;-67